Duque de Caxias, Brazil
Current Conditions -  °F | °C
As of 1:00 PM on Saturday 22 Nov 2014 (Local Time) from SBGL Reporting Station
Clear Clear  
Wind Chill: 36°   Ceiling: Unl
Heat Index: 36°   Visibility: 6mi
Dew Point: 16°   Wind: 6mph
Humidity: 30%   Direction: 340°NNW
Pressure: 29.8"   Gusts: NA
Location:  22.77°S, 43.31°W
Report Text: SBGL 221500Z 34005KT CAVOK 36/16 Q1009
Loading
Personal Weather Stations






























Interactive Weather Map New forecast layout! Learn more

10-Day Weather Forecast

Advertisements
Track Severe Weather on mobile